createdAt,value
2017-01-30T01:02:10.170Z,1015.62
2017-01-30T01:03:10.107Z,1015.6
2017-01-30T01:04:10.045Z,1015.61
2017-01-30T01:05:09.980Z,1015.6
2017-01-30T01:06:09.918Z,1015.63
2017-01-30T01:07:09.856Z,1015.61
2017-01-30T01:08:09.792Z,1015.6
2017-01-30T01:09:09.729Z,1015.53
2017-01-30T01:10:09.669Z,1015.52
2017-01-30T01:11:09.605Z,1015.49
2017-01-30T01:12:09.541Z,1015.43
2017-01-30T01:13:09.478Z,1015.44
2017-01-30T01:14:09.419Z,1015.41
2017-01-30T01:15:09.354Z,1015.44
2017-01-30T01:16:09.292Z,1015.42
2017-01-30T01:17:09.228Z,1015.4
2017-01-30T01:18:09.165Z,1015.36
2017-01-30T01:19:09.102Z,1015.34
2017-01-30T01:20:09.042Z,1015.34
2017-01-30T01:21:08.979Z,1015.29
2017-01-30T01:22:08.911Z,1015.25
2017-01-30T01:23:08.852Z,1015.24
2017-01-30T01:24:08.798Z,1015.27
2017-01-30T01:25:08.726Z,1015.24
2017-01-30T01:26:08.661Z,1015.27
2017-01-30T01:27:08.599Z,1015.24
2017-01-30T01:28:08.538Z,1015.24
2017-01-30T01:29:08.476Z,1015.22
2017-01-30T01:30:08.412Z,1015.25
2017-01-30T01:31:08.350Z,1015.24
2017-01-30T01:32:08.287Z,1015.25
2017-01-30T01:33:08.223Z,1015.24
2017-01-30T01:34:08.162Z,1015.22
2017-01-30T01:35:08.098Z,1015.23
2017-01-30T01:36:08.040Z,1015.19
2017-01-30T01:37:07.970Z,1015.17
2017-01-30T01:38:07.910Z,1015.18
2017-01-30T01:39:07.855Z,1015.14
2017-01-30T01:40:07.784Z,1015.13
2017-01-30T01:41:07.723Z,1015.1
2017-01-30T01:42:07.660Z,1015.12
2017-01-30T01:43:07.600Z,1015.12
2017-01-30T01:44:07.532Z,1015.12
2017-01-30T01:45:07.470Z,1015.13
2017-01-30T01:46:07.408Z,1015.11
2017-01-30T01:47:07.347Z,1015.13
2017-01-30T01:48:07.290Z,1015.06
2017-01-30T01:49:07.221Z,1015.05
2017-01-30T01:50:07.159Z,1015.04
2017-01-30T01:51:07.094Z,1015.05
2017-01-30T01:52:07.031Z,1015.02
2017-01-30T01:53:06.970Z,1015.05
2017-01-30T01:54:06.907Z,1015.04
2017-01-30T01:55:06.843Z,1015.02
2017-01-30T01:56:06.780Z,1015.02
2017-01-30T01:57:06.724Z,1014.96
2017-01-30T01:58:06.656Z,1014.93
2017-01-30T01:59:06.591Z,1014.92
2017-01-30T02:00:06.530Z,1014.93
2017-01-30T02:01:06.466Z,1014.9
2017-01-30T02:02:06.405Z,1014.9
2017-01-30T02:03:06.342Z,1014.88
2017-01-30T02:04:06.278Z,1014.89
2017-01-30T02:05:06.216Z,1014.9
2017-01-30T02:06:06.153Z,1014.91
2017-01-30T02:07:06.090Z,1014.93
2017-01-30T02:08:06.030Z,1014.93
2017-01-30T02:09:05.964Z,1014.97
2017-01-30T02:10:05.903Z,1014.93
2017-01-30T02:11:05.840Z,1014.87
2017-01-30T02:12:05.779Z,1014.86
2017-01-30T02:13:05.714Z,1014.85
2017-01-30T02:14:05.650Z,1014.82
2017-01-30T02:15:05.587Z,1014.82
2017-01-30T02:16:05.531Z,1014.8
2017-01-30T02:17:05.468Z,1014.76
2017-01-30T02:18:05.397Z,1014.77
2017-01-30T02:19:05.337Z,1014.75
2017-01-30T02:20:05.274Z,1014.76
2017-01-30T02:21:05.210Z,1014.72
2017-01-30T02:22:06.350Z,1014.74
2017-01-30T02:23:05.087Z,1014.69
2017-01-30T02:24:05.028Z,1014.66
2017-01-30T02:25:04.961Z,1014.67
2017-01-30T02:26:04.907Z,1014.62
2017-01-30T02:27:04.835Z,1014.66
2017-01-30T02:28:04.771Z,1014.62
2017-01-30T02:29:04.712Z,1014.65
2017-01-30T02:30:04.649Z,1014.63
2017-01-30T02:31:04.586Z,1014.6
2017-01-30T02:32:04.561Z,1014.61
2017-01-30T02:33:04.663Z,1014.61
2017-01-30T02:34:04.395Z,1014.59
2017-01-30T02:35:04.334Z,1014.56
2017-01-30T02:36:04.297Z,1014.56
2017-01-30T02:37:04.208Z,1014.53
2017-01-30T02:38:04.147Z,1014.56
2017-01-30T02:39:04.083Z,1014.58
2017-01-30T02:40:04.022Z,1014.61
2017-01-30T02:41:03.957Z,1014.55
2017-01-30T02:42:03.896Z,1014.56
2017-01-30T02:43:03.830Z,1014.58
2017-01-30T02:44:03.770Z,1014.55
2017-01-30T02:45:03.707Z,1014.57
2017-01-30T02:46:03.642Z,1014.56
2017-01-30T02:47:03.585Z,1014.55
2017-01-30T02:48:03.518Z,1014.52
2017-01-30T02:49:03.456Z,1014.52
2017-01-30T02:50:03.392Z,1014.55
2017-01-30T02:51:03.333Z,1014.57
2017-01-30T02:52:03.267Z,1014.58
2017-01-30T02:53:03.204Z,1014.56
2017-01-30T02:54:03.212Z,1014.59
2017-01-30T02:55:03.082Z,1014.59
2017-01-30T02:56:03.015Z,1014.54
2017-01-30T02:57:02.954Z,1014.56
2017-01-30T02:58:02.889Z,1014.52
2017-01-30T02:59:02.827Z,1014.49
2017-01-30T03:00:03.021Z,1014.5
2017-01-30T03:01:02.703Z,1014.47
2017-01-30T03:02:02.640Z,1014.45
2017-01-30T03:03:02.789Z,1014.47
2017-01-30T03:04:02.514Z,1014.49
2017-01-30T03:05:02.453Z,1014.49
2017-01-30T03:06:02.388Z,1014.53
2017-01-30T03:07:02.327Z,1014.46
2017-01-30T03:08:02.264Z,1014.48
2017-01-30T03:09:02.205Z,1014.45
2017-01-30T03:10:02.139Z,1014.51
2017-01-30T03:11:02.077Z,1014.44
2017-01-30T03:12:02.015Z,1014.4
2017-01-30T03:13:01.949Z,1014.4
2017-01-30T03:14:01.887Z,1014.39
2017-01-30T03:15:01.857Z,1014.33
2017-01-30T03:16:01.761Z,1014.34
2017-01-30T03:17:01.699Z,1014.34
2017-01-30T03:18:01.635Z,1014.32
2017-01-30T03:19:01.574Z,1014.31
2017-01-30T03:20:01.509Z,1014.34
2017-01-30T03:21:01.446Z,1014.27
2017-01-30T03:22:01.387Z,1014.25
2017-01-30T03:23:01.321Z,1014.29
2017-01-30T03:24:01.260Z,1014.25
2017-01-30T03:25:01.196Z,1014.26
2017-01-30T03:26:01.133Z,1014.25
2017-01-30T03:27:01.072Z,1014.24
2017-01-30T03:28:01.012Z,1014.17
2017-01-30T03:29:00.947Z,1014.19
2017-01-30T03:30:00.884Z,1014.22
2017-01-30T03:31:00.822Z,1014.22
2017-01-30T03:32:00.758Z,1014.21
2017-01-30T03:33:00.695Z,1014.18
2017-01-30T03:34:00.630Z,1014.19
2017-01-30T03:35:00.568Z,1014.15
2017-01-30T03:36:00.503Z,1014.15
2017-01-30T03:37:00.443Z,1014.14
2017-01-30T03:38:00.388Z,1014.17
2017-01-30T03:39:00.317Z,1014.14
2017-01-30T03:40:00.259Z,1014.16
2017-01-30T03:41:00.192Z,1014.18
2017-01-30T03:42:00.128Z,1014.23
2017-01-30T03:43:00.066Z,1014.17
2017-01-30T03:44:00.004Z,1014.17
2017-01-30T03:44:59.939Z,1014.16
2017-01-30T03:45:59.876Z,1014.17
2017-01-30T03:46:59.822Z,1014.19
2017-01-30T03:47:59.753Z,1014.2
2017-01-30T03:48:59.690Z,1014.26
2017-01-30T03:49:59.627Z,1014.26
2017-01-30T03:50:59.564Z,1014.23
2017-01-30T03:51:59.510Z,1014.22
2017-01-30T03:52:59.437Z,1014.17
2017-01-30T03:53:59.374Z,1014.11
2017-01-30T03:54:59.312Z,1014.12
2017-01-30T03:55:59.250Z,1014.11
2017-01-30T03:56:59.188Z,1014.13
2017-01-30T03:57:59.123Z,1014.12
2017-01-30T03:58:59.065Z,1014.11
2017-01-30T03:59:58.999Z,1014.16
2017-01-30T04:00:58.934Z,1014.62
2017-01-30T04:02:01.955Z,1014.85
2017-01-30T04:02:58.809Z,1014.73
2017-01-30T04:03:58.752Z,1014.35
2017-01-30T04:04:58.683Z,1014.37
2017-01-30T04:05:58.622Z,1014.4
2017-01-30T04:06:58.557Z,1014.35
2017-01-30T04:07:58.497Z,1014.34
2017-01-30T04:08:58.433Z,1014.27
2017-01-30T04:09:58.379Z,1014.25
2017-01-30T04:10:58.307Z,1014.28
2017-01-30T04:11:58.244Z,1014.29
2017-01-30T04:12:58.182Z,1014.3
2017-01-30T04:13:58.123Z,1014.17
2017-01-30T04:14:58.057Z,1014.21
2017-01-30T04:15:57.993Z,1014.21
2017-01-30T04:16:57.933Z,1014.23
2017-01-30T04:17:57.903Z,1014.3
2017-01-30T04:18:57.807Z,1014.35
2017-01-30T04:19:57.743Z,1014.4
2017-01-30T04:20:57.681Z,1014.35
2017-01-30T04:21:57.617Z,1014.35
2017-01-30T04:22:57.553Z,1014.32
2017-01-30T04:23:57.494Z,1014.3
2017-01-30T04:24:57.435Z,1014.26
2017-01-30T04:25:57.365Z,1014.29
2017-01-30T04:26:57.307Z,1014.31
2017-01-30T04:27:57.248Z,1014.35
2017-01-30T04:28:57.177Z,1014.25
2017-01-30T04:29:57.113Z,1014.3
2017-01-30T04:30:57.051Z,1014.31
2017-01-30T04:31:56.989Z,1014.28
2017-01-30T04:32:56.925Z,1014.23
2017-01-30T04:33:56.863Z,1014.22
2017-01-30T04:34:56.800Z,1014.2
2017-01-30T04:35:56.738Z,1014.17
2017-01-30T04:36:56.675Z,1014.18
2017-01-30T04:37:56.611Z,1014.14
2017-01-30T04:38:56.550Z,1014.11
2017-01-30T04:39:56.486Z,1014.13
2017-01-30T04:40:56.424Z,1014.07
2017-01-30T04:41:56.361Z,1014.09
2017-01-30T04:42:56.299Z,1014.07
2017-01-30T04:43:56.235Z,1014.07
2017-01-30T04:44:56.171Z,1014.08
2017-01-30T04:45:56.111Z,1014.06
2017-01-30T04:46:56.045Z,1014.09
2017-01-30T04:47:55.984Z,1014.06
2017-01-30T04:48:55.919Z,1014.07
2017-01-30T04:49:55.857Z,1014.07
2017-01-30T04:50:55.797Z,1014
2017-01-30T04:51:55.731Z,1013.96
2017-01-30T04:52:55.670Z,1013.97
2017-01-30T04:53:55.604Z,1013.95
2017-01-30T04:54:55.543Z,1013.97
2017-01-30T04:55:55.485Z,1013.89
2017-01-30T04:56:55.418Z,1013.92
2017-01-30T04:57:55.353Z,1013.95
2017-01-30T04:58:55.290Z,1013.92
2017-01-30T04:59:55.229Z,1013.88
2017-01-30T05:00:55.166Z,1013.92
2017-01-30T05:01:55.103Z,1013.86
2017-01-30T05:02:55.041Z,1013.88
2017-01-30T05:03:54.977Z,1013.88
2017-01-30T05:04:54.914Z,1013.89
2017-01-30T05:05:54.851Z,1013.89
2017-01-30T05:06:54.789Z,1013.85
2017-01-30T05:07:54.727Z,1013.83
2017-01-30T05:08:54.667Z,1013.88
2017-01-30T05:09:54.599Z,1013.86
2017-01-30T05:10:54.545Z,1013.82
2017-01-30T05:11:54.477Z,1013.84
2017-01-30T05:12:54.412Z,1013.85
2017-01-30T05:13:54.350Z,1013.81
2017-01-30T05:14:54.285Z,1013.8
2017-01-30T05:15:54.219Z,1013.8
2017-01-30T05:16:54.159Z,1013.76
2017-01-30T05:17:54.098Z,1013.76
2017-01-30T05:18:54.033Z,1013.73
2017-01-30T05:19:53.974Z,1013.71
2017-01-30T05:20:53.910Z,1013.66
2017-01-30T05:21:53.845Z,1013.7
2017-01-30T05:22:53.783Z,1013.72
2017-01-30T05:23:53.720Z,1013.7
2017-01-30T05:24:53.657Z,1013.67
2017-01-30T05:25:53.593Z,1013.66
2017-01-30T05:26:53.529Z,1013.67
2017-01-30T05:27:53.467Z,1013.66
2017-01-30T05:28:53.404Z,1013.66
2017-01-30T05:29:53.342Z,1013.68
2017-01-30T05:30:53.278Z,1013.67
2017-01-30T05:31:53.216Z,1013.68
2017-01-30T05:32:53.155Z,1013.7
2017-01-30T05:33:53.091Z,1013.67
2017-01-30T05:34:53.027Z,1013.64
2017-01-30T05:35:52.966Z,1013.58
2017-01-30T05:36:52.908Z,1013.55
2017-01-30T05:37:52.840Z,1013.57
2017-01-30T05:38:52.778Z,1013.6
2017-01-30T05:39:52.716Z,1013.64
2017-01-30T05:40:52.652Z,1013.58
2017-01-30T05:41:52.587Z,1013.56
2017-01-30T05:42:52.538Z,1013.54
2017-01-30T05:43:52.463Z,1013.59
2017-01-30T05:44:52.399Z,1013.58
2017-01-30T05:45:52.336Z,1013.53
2017-01-30T05:46:52.272Z,1013.5
2017-01-30T05:47:52.212Z,1013.53
2017-01-30T05:48:52.147Z,1013.5
2017-01-30T05:49:52.085Z,1013.47
2017-01-30T05:50:52.022Z,1013.42
2017-01-30T05:51:51.961Z,1013.39
2017-01-30T05:52:51.897Z,1013.37
2017-01-30T05:53:51.833Z,1013.36
2017-01-30T05:54:51.773Z,1013.4
2017-01-30T05:55:51.722Z,1013.38
2017-01-30T05:56:51.645Z,1013.34
2017-01-30T05:57:51.582Z,1013.35
2017-01-30T05:58:51.520Z,1013.34
2017-01-30T05:59:51.458Z,1013.3
2017-01-30T06:00:51.394Z,1013.3
2017-01-30T06:01:51.331Z,1013.25
2017-01-30T06:02:51.269Z,1013.22
2017-01-30T06:03:51.232Z,1013.25
2017-01-30T06:04:51.143Z,1013.25
2017-01-30T06:05:51.080Z,1013.25
2017-01-30T06:06:51.027Z,1013.23
2017-01-30T06:07:50.954Z,1013.21
2017-01-30T06:08:50.891Z,1013.18
